15:06
Airports
History
Links
Donate
Help keep this website running!
PayPal
Bitcoin
This page is community maintained. The information is intended for PC simulator navigation or reference.
Always use approved charts for navigation.
LIPQ
Ronchi Dei Legionari
Ronchi Dei Legionari (LIPQ)
San Canzian d'Isonzo, Friuli-Venezia Giulia, Italy (34075)
(C)
Lat/Lng:45° 49' 40.29" N / 13° 27' 59.99" E
45.827857 / 13.466664
Elevation:37'ft / 11mMSL
ID / ICAO:LIPQ
Runways:1
Longest:09-27
Asphalt 2,993m / 9,821ft
Controlled:Yes
METAR14:50 GMT 2018-01-20
Altimeter: 29.85
Visibility: 6.2 statute miles
Wind: 5 knots (from 210°)
Temp: 8°c / 46°f
Humidity: 70.6%

METAR: LIPQ 201450Z 21005KT 9999 BKN050 08/03 Q1011

(Powered by phpweather)
Airport Radio Frequencies
Tower: 130.2
Approach: 119.15
Nearby VORs <50NM
Nearby NDBs
Runway 09 / 27
Dimensions:2993.4 x 45.1m 9821' x 148'ft
Surface:Asphalt
Edge Lights:Medium intensity
Runway 09 [A]Runway 27 [B]
Heading:090°TH 270°TH
Lat:
Lng:
45° 49' 40.65"N
13° 26' 50.48"E
45° 49' 39.92"N
13° 29' 9.5"E
ALS:Calvert ILS Cat II
TDZ:Yes, lighted
User Notes and Comments
45° 49' 40.29" N / 13° 27' 59.99" E
Distance To
Airport ID:
Nearby Airports
(C) Gorizia 8.4 NM
LIPG NE 49°
4 Udine Campoformido 19.5 NM
LIPD NW 316°
4 Fraforeano Ronchis 21.7 NM
LIDJ W 270°
(C) RIVOLTO 22.6 NM
LIPI ( WX ) WNW 297°
(C) PORTOROZ 25.6 NM
LJPZ ( WX ) SSE 163°
(U) Casarsa 32.3 NM
LIDK WNW 285°
(C) AVIANO AB 44.1 NM
LIPA ( WX ) WNW 288°
VFR Chart
Flight Planning at SkyVector.com